createdAt,value
2022-12-03T00:00:41.558Z,8.87
2022-12-03T00:03:11.356Z,5.10
2022-12-03T00:05:48.369Z,5.23
2022-12-03T00:08:18.758Z,2.67
2022-12-03T00:10:48.947Z,3.33
2022-12-03T00:13:21.974Z,7.33
2022-12-03T00:15:51.686Z,5.40
2022-12-03T00:18:21.333Z,4.77
2022-12-03T00:20:52.091Z,5.47
2022-12-03T00:23:21.802Z,6.80
2022-12-03T00:25:51.440Z,8.67
2022-12-03T00:28:20.953Z,7.63
2022-12-03T00:30:50.972Z,4.67
2022-12-03T00:33:21.065Z,5.93
2022-12-03T00:35:50.677Z,7.90
2022-12-03T00:38:20.672Z,5.53
2022-12-03T00:40:50.767Z,8.10
2022-12-03T00:43:20.951Z,11.33
2022-12-03T00:45:51.115Z,8.53
2022-12-03T00:48:20.826Z,6.70
2022-12-03T00:50:50.403Z,13.63
2022-12-03T00:53:20.346Z,5.53
2022-12-03T00:55:51.869Z,8.60
2022-12-03T00:58:21.873Z,7.17
2022-12-03T01:00:51.979Z,10.67
2022-12-03T01:03:21.965Z,12.40
2022-12-03T01:05:52.012Z,14.43
2022-12-03T01:08:22.134Z,15.70
2022-12-03T01:10:51.748Z,11.23
2022-12-03T01:13:21.286Z,13.13
2022-12-03T01:15:50.849Z,13.27
2022-12-03T01:18:20.839Z,10.70
2022-12-03T01:20:50.465Z,11.50
2022-12-03T01:23:23.220Z,15.57
2022-12-03T01:25:53.271Z,11.57
2022-12-03T01:28:22.908Z,12.67
2022-12-03T01:31:10.750Z,13.23
2022-12-03T01:33:40.819Z,10.73
2022-12-03T01:36:11.011Z,11.17
2022-12-03T01:38:40.573Z,10.37
2022-12-03T01:41:12.077Z,8.27
2022-12-03T01:43:42.205Z,16.37
2022-12-03T01:46:13.595Z,3.63
2022-12-03T01:48:43.594Z,13.30
2022-12-03T01:51:14.171Z,15.23
2022-12-03T01:53:44.096Z,16.20
2022-12-03T01:56:17.226Z,14.70
2022-12-03T01:58:47.474Z,13.30
2022-12-03T02:01:17.957Z,18.80
2022-12-03T02:03:48.133Z,22.57
2022-12-03T02:06:21.612Z,20.37
2022-12-03T02:08:51.158Z,19.40
2022-12-03T02:11:24.185Z,10.47
2022-12-03T02:13:54.945Z,18.33
2022-12-03T02:16:26.836Z,16.40
2022-12-03T02:18:57.009Z,21.50
2022-12-03T02:21:27.340Z,21.13
2022-12-03T02:24:16.122Z,20.07
2022-12-03T02:26:46.476Z,17.70
2022-12-03T02:29:16.731Z,18.63
2022-12-03T02:31:46.733Z,23.30
2022-12-03T02:34:35.234Z,19.00
2022-12-03T02:37:05.505Z,25.30
2022-12-03T02:39:35.956Z,23.77
2022-12-03T02:42:24.372Z,16.73
2022-12-03T02:44:56.112Z,23.27
2022-12-03T02:47:27.687Z,14.07
2022-12-03T02:49:57.328Z,21.73
2022-12-03T02:52:27.293Z,19.57
2022-12-03T02:54:56.828Z,6.67
2022-12-03T02:57:42.304Z,9.05
2022-12-03T03:00:12.687Z,8.70
2022-12-03T03:02:42.806Z,11.53
2022-12-03T03:05:12.804Z,11.30
2022-12-03T03:07:42.910Z,12.50
2022-12-03T03:10:14.116Z,4.37
2022-12-03T03:12:44.275Z,6.23
2022-12-03T03:15:14.022Z,5.43
2022-12-03T03:17:44.486Z,3.80
2022-12-03T03:20:14.221Z,4.33
2022-12-03T03:22:44.703Z,2.87
2022-12-03T03:25:15.289Z,2.87
2022-12-03T03:27:44.765Z,2.07
2022-12-03T03:30:15.166Z,2.23
2022-12-03T03:32:44.863Z,3.70
2022-12-03T03:35:15.422Z,5.40
2022-12-03T03:37:45.372Z,2.90
2022-12-03T03:40:15.003Z,4.63
2022-12-03T03:42:44.454Z,3.97
2022-12-03T03:45:14.004Z,5.03
2022-12-03T03:47:43.699Z,4.33
2022-12-03T03:50:13.520Z,3.97
2022-12-03T03:52:43.452Z,2.60
2022-12-03T03:55:13.082Z,4.70
2022-12-03T03:57:43.117Z,1.90
2022-12-03T04:00:13.496Z,3.40
2022-12-03T04:02:43.792Z,4.07
2022-12-03T04:05:17.287Z,5.50
2022-12-03T04:07:46.938Z,3.87
2022-12-03T04:10:46.007Z,5.47
2022-12-03T04:13:15.577Z,3.60
2022-12-03T04:15:45.612Z,2.57
2022-12-03T04:18:33.831Z,3.50
2022-12-03T04:21:21.989Z,4.60
2022-12-03T04:23:52.026Z,4.33
2022-12-03T04:26:40.113Z,5.37
2022-12-03T04:29:10.210Z,4.10
2022-12-03T04:31:59.036Z,6.73
2022-12-03T04:34:47.607Z,3.77
2022-12-03T04:37:17.259Z,3.47
2022-12-03T04:39:46.846Z,3.93
2022-12-03T04:42:16.791Z,4.63
2022-12-03T04:44:46.375Z,5.30
2022-12-03T04:47:20.028Z,6.22
2022-12-03T04:49:50.907Z,6.90
2022-12-03T04:52:21.335Z,7.53
2022-12-03T04:54:51.644Z,7.55
2022-12-03T04:57:24.261Z,7.40
2022-12-03T04:59:53.816Z,9.45
2022-12-03T05:02:23.434Z,8.98
2022-12-03T05:04:53.296Z,10.10
2022-12-03T05:07:23.451Z,8.82
2022-12-03T05:09:53.649Z,10.05
2022-12-03T05:12:23.209Z,8.15
2022-12-03T05:14:53.468Z,7.93
2022-12-03T05:17:23.711Z,7.20
2022-12-03T05:20:11.900Z,6.10
2022-12-03T05:22:42.035Z,5.70
2022-12-03T05:25:12.187Z,6.03
2022-12-03T05:27:41.725Z,5.45
2022-12-03T05:30:11.590Z,6.15
2022-12-03T05:32:41.190Z,4.97
2022-12-03T05:35:11.845Z,6.07
2022-12-03T05:37:41.967Z,5.85
2022-12-03T05:40:11.918Z,6.03
2022-12-03T05:43:01.788Z,6.50
2022-12-03T05:45:38.087Z,5.88
2022-12-03T05:48:08.955Z,7.07
2022-12-03T05:50:39.565Z,5.93
2022-12-03T05:53:18.562Z,6.13
2022-12-03T05:55:48.587Z,6.32
2022-12-03T05:58:19.079Z,5.60
2022-12-03T06:00:49.083Z,5.32
2022-12-03T06:03:19.628Z,5.93
2022-12-03T06:05:49.339Z,5.38
2022-12-03T06:08:19.315Z,5.20
2022-12-03T06:10:48.950Z,6.35
2022-12-03T06:13:18.987Z,5.25
2022-12-03T06:15:49.195Z,6.07
2022-12-03T06:18:18.842Z,5.30
2022-12-03T06:20:48.392Z,5.30
2022-12-03T06:23:19.013Z,5.35
2022-12-03T06:25:48.732Z,4.55
2022-12-03T06:28:18.284Z,5.55
2022-12-03T06:30:48.198Z,5.20
2022-12-03T06:33:18.201Z,5.13
2022-12-03T06:35:47.778Z,3.92
2022-12-03T06:38:17.690Z,3.67
2022-12-03T06:40:47.733Z,4.43
2022-12-03T06:43:17.376Z,4.43
2022-12-03T06:45:48.025Z,4.20
2022-12-03T06:48:18.193Z,4.60
2022-12-03T06:50:47.721Z,4.60
2022-12-03T06:53:17.202Z,4.13
2022-12-03T06:55:47.215Z,4.70
2022-12-03T06:58:17.293Z,5.75
2022-12-03T07:00:51.918Z,4.55
2022-12-03T07:03:22.426Z,4.35
2022-12-03T07:05:52.098Z,5.30
2022-12-03T07:08:22.755Z,5.00
2022-12-03T07:10:52.611Z,3.75
2022-12-03T07:13:22.693Z,2.83
2022-12-03T07:15:53.475Z,4.45
2022-12-03T07:18:24.079Z,4.28
2022-12-03T07:20:53.570Z,3.67
2022-12-03T07:23:23.084Z,3.65
2022-12-03T07:25:52.706Z,3.85
2022-12-03T07:28:22.290Z,3.88
2022-12-03T07:30:51.762Z,3.53
2022-12-03T07:33:21.784Z,5.28
2022-12-03T07:35:51.444Z,4.75
2022-12-03T07:38:21.421Z,4.05
2022-12-03T07:40:51.839Z,5.28
2022-12-03T07:43:21.415Z,5.10
2022-12-03T07:45:50.904Z,4.40
2022-12-03T07:48:20.925Z,5.00
2022-12-03T07:50:50.680Z,4.80
2022-12-03T07:53:20.841Z,6.60
2022-12-03T07:55:50.870Z,6.72
2022-12-03T07:58:20.480Z,7.32
2022-12-03T08:00:50.065Z,8.30
2022-12-03T08:03:20.069Z,8.27
2022-12-03T08:05:50.269Z,7.15
2022-12-03T08:08:20.465Z,7.75
2022-12-03T08:10:50.774Z,6.55
2022-12-03T08:13:20.611Z,5.97
2022-12-03T08:15:52.586Z,4.88
2022-12-03T08:18:23.485Z,4.63
2022-12-03T08:20:53.266Z,3.17
2022-12-03T08:23:24.431Z,3.47
2022-12-03T08:25:54.830Z,3.50
2022-12-03T08:28:29.480Z,3.15
2022-12-03T08:31:19.333Z,3.25
2022-12-03T08:33:50.270Z,2.17
2022-12-03T08:36:27.261Z,2.67
2022-12-03T08:38:58.131Z,3.95
2022-12-03T08:41:46.166Z,1.38
2022-12-03T08:44:33.177Z,2.45
2022-12-03T08:47:13.731Z,1.93
2022-12-03T08:49:43.907Z,1.37
2022-12-03T08:52:23.293Z,1.77
2022-12-03T08:54:57.331Z,0.43
2022-12-03T08:57:27.792Z,1.13
2022-12-03T09:00:02.973Z,0.67
2022-12-03T09:02:35.778Z,0.55
2022-12-03T09:05:16.114Z,1.30
2022-12-03T09:07:46.995Z,0.87
2022-12-03T09:10:17.862Z,1.87
2022-12-03T09:12:47.426Z,1.20
2022-12-03T09:15:17.056Z,0.33
2022-12-03T09:17:47.106Z,1.50
2022-12-03T09:20:16.703Z,0.63
2022-12-03T09:22:46.302Z,0.93
2022-12-03T09:25:17.133Z,2.13
2022-12-03T09:27:47.094Z,0.07
2022-12-03T09:30:16.833Z,1.20
2022-12-03T09:32:46.782Z,0.87
2022-12-03T09:35:19.739Z,0.60
2022-12-03T09:37:49.365Z,0.50
2022-12-03T09:40:23.155Z,0.53
2022-12-03T09:42:53.244Z,0.00
2022-12-03T09:45:25.375Z,0.40
2022-12-03T09:47:54.864Z,0.30
2022-12-03T09:50:26.189Z,0.70
2022-12-03T09:52:56.468Z,0.30
2022-12-03T09:55:27.631Z,0.43
2022-12-03T09:57:58.074Z,0.10
2022-12-03T10:00:31.465Z,1.07
2022-12-03T10:03:03.243Z,0.40
2022-12-03T10:05:34.021Z,0.50
2022-12-03T10:08:11.842Z,0.17
2022-12-03T10:10:42.435Z,0.13
2022-12-03T10:13:17.125Z,0.57
2022-12-03T10:15:52.401Z,1.17
2022-12-03T10:18:24.852Z,0.93
2022-12-03T10:20:55.268Z,1.40
2022-12-03T10:23:27.072Z,1.77
2022-12-03T10:25:57.334Z,1.97
2022-12-03T10:28:32.531Z,1.03
2022-12-03T10:31:03.089Z,2.27
2022-12-03T10:33:33.629Z,2.00
2022-12-03T10:36:22.716Z,1.90
2022-12-03T10:39:07.884Z,2.60
2022-12-03T10:41:38.925Z,2.08
2022-12-03T10:44:18.231Z,1.10
2022-12-03T10:46:48.937Z,3.13
2022-12-03T10:49:19.408Z,1.30
2022-12-03T10:51:49.013Z,4.63
2022-12-03T10:54:23.208Z,2.90
2022-12-03T10:56:53.263Z,9.57
2022-12-03T10:59:23.714Z,18.93
2022-12-03T11:01:53.916Z,22.80
2022-12-03T11:04:24.618Z,26.60
2022-12-03T11:06:54.140Z,37.27
2022-12-03T11:09:28.146Z,38.77
2022-12-03T11:11:57.857Z,35.13
2022-12-03T11:14:46.114Z,39.83
2022-12-03T11:17:16.066Z,42.23
2022-12-03T11:19:46.475Z,49.80
2022-12-03T11:22:16.424Z,56.20
2022-12-03T11:24:46.757Z,54.70
2022-12-03T11:27:20.515Z,64.23
2022-12-03T11:29:55.006Z,60.67
2022-12-03T11:32:45.606Z,47.87
2022-12-03T11:35:16.268Z,47.17
2022-12-03T11:37:46.301Z,40.07
2022-12-03T11:40:21.003Z,46.07
2022-12-03T11:42:51.517Z,37.10
2022-12-03T11:45:24.963Z,30.53
2022-12-03T11:47:55.411Z,36.73
2022-12-03T11:50:26.128Z,33.73
2022-12-03T11:52:59.901Z,29.73
2022-12-03T11:55:32.979Z,33.77
2022-12-03T11:58:04.164Z,30.30
2022-12-03T12:00:34.132Z,25.03
2022-12-03T12:03:04.252Z,29.77
2022-12-03T12:05:34.801Z,22.57
2022-12-03T12:08:04.550Z,30.13
2022-12-03T12:10:39.982Z,18.17
2022-12-03T12:15:44.302Z,18.03
2022-12-03T12:18:32.785Z,23.73
2022-12-03T12:21:21.923Z,27.43
2022-12-03T12:23:51.943Z,24.23
2022-12-03T12:26:22.162Z,22.77
2022-12-03T12:28:52.801Z,21.07
2022-12-03T12:31:22.483Z,20.57
2022-12-03T12:33:52.095Z,23.03
2022-12-03T12:36:21.724Z,20.10
2022-12-03T12:38:53.776Z,20.83
2022-12-03T12:41:25.513Z,16.70
2022-12-03T12:43:55.707Z,17.73
2022-12-03T12:46:47.136Z,15.57
2022-12-03T12:49:16.641Z,19.63
2022-12-03T12:51:47.164Z,12.20
2022-12-03T12:54:17.619Z,19.33
2022-12-03T12:56:48.801Z,16.37
2022-12-03T12:59:22.634Z,14.70
2022-12-03T13:01:55.753Z,15.30
2022-12-03T13:04:26.076Z,22.80
2022-12-03T13:06:55.747Z,14.47
2022-12-03T13:09:26.418Z,16.13
2022-12-03T13:11:59.243Z,15.40
2022-12-03T13:14:38.845Z,17.90
2022-12-03T13:17:19.196Z,17.13
2022-12-03T13:19:55.884Z,14.93
2022-12-03T13:22:30.938Z,16.20
2022-12-03T13:25:01.111Z,16.00
2022-12-03T13:27:31.446Z,16.63
2022-12-03T13:30:02.056Z,9.97
2022-12-03T13:32:40.921Z,14.97
2022-12-03T13:35:18.157Z,11.57
2022-12-03T13:37:48.343Z,12.27
2022-12-03T13:40:21.694Z,11.27
2022-12-03T13:42:56.913Z,9.30
2022-12-03T13:45:34.597Z,14.97
2022-12-03T13:48:05.548Z,10.27
2022-12-03T13:50:40.223Z,11.73
2022-12-03T13:53:25.439Z,21.23
2022-12-03T13:56:17.132Z,17.10
2022-12-03T13:58:50.442Z,13.63
2022-12-03T14:01:22.775Z,16.00
2022-12-03T14:03:53.017Z,17.00
2022-12-03T14:06:23.502Z,16.80
2022-12-03T14:08:53.692Z,15.60
2022-12-03T14:11:42.216Z,13.30
2022-12-03T14:14:11.986Z,20.00
2022-12-03T14:16:41.631Z,17.43
2022-12-03T14:19:12.268Z,16.07
2022-12-03T14:21:42.347Z,19.13
2022-12-03T14:24:12.326Z,16.63
2022-12-03T14:26:42.008Z,12.70
2022-12-03T14:29:12.685Z,18.33
2022-12-03T14:31:42.667Z,20.30
2022-12-03T14:34:13.001Z,14.70
2022-12-03T14:36:43.435Z,18.13
2022-12-03T14:39:14.391Z,20.67
2022-12-03T14:42:02.619Z,16.97
2022-12-03T14:44:32.999Z,15.43
2022-12-03T14:47:02.611Z,19.30
2022-12-03T14:49:35.569Z,18.70
2022-12-03T14:52:08.592Z,18.57
2022-12-03T14:54:43.002Z,16.90
2022-12-03T14:57:15.722Z,15.30
2022-12-03T14:59:45.813Z,15.37
2022-12-03T15:02:16.253Z,14.30
2022-12-03T15:04:47.367Z,17.17
2022-12-03T15:07:17.308Z,14.97
2022-12-03T15:09:48.103Z,17.13
2022-12-03T15:12:18.313Z,16.73
2022-12-03T15:14:48.399Z,17.23
2022-12-03T15:17:25.462Z,15.83
2022-12-03T15:19:59.845Z,14.97
2022-12-03T15:22:29.881Z,12.87
2022-12-03T15:25:00.034Z,19.93
2022-12-03T15:27:29.746Z,12.23
2022-12-03T15:29:59.434Z,19.63
2022-12-03T15:32:29.542Z,20.27
2022-12-03T15:35:02.613Z,19.37
2022-12-03T15:37:32.917Z,17.90
2022-12-03T15:40:02.901Z,17.07
2022-12-03T15:42:33.434Z,30.10
2022-12-03T15:45:03.556Z,21.30
2022-12-03T15:47:34.415Z,16.87
2022-12-03T15:50:04.843Z,17.73
2022-12-03T15:52:36.038Z,26.20
2022-12-03T15:55:05.898Z,20.03
2022-12-03T15:57:35.876Z,19.87
2022-12-03T16:00:06.678Z,21.83
2022-12-03T16:02:45.157Z,19.00
2022-12-03T16:05:19.491Z,21.87
2022-12-03T16:07:49.919Z,15.37
2022-12-03T16:10:22.595Z,20.13
2022-12-03T16:12:53.205Z,20.57
2022-12-03T16:15:27.267Z,29.47
2022-12-03T16:17:57.164Z,32.67
2022-12-03T16:20:27.653Z,26.17
2022-12-03T16:22:58.623Z,26.37
2022-12-03T16:25:28.997Z,19.63
2022-12-03T16:27:59.625Z,23.67
2022-12-03T16:30:29.634Z,10.50
2022-12-03T16:33:00.287Z,12.37
2022-12-03T16:35:30.079Z,7.00
2022-12-03T16:37:59.628Z,15.03
2022-12-03T16:40:29.356Z,12.57
2022-12-03T16:42:59.059Z,9.47
2022-12-03T16:45:55.106Z,6.97
2022-12-03T16:48:24.841Z,9.93
2022-12-03T16:50:55.561Z,6.13
2022-12-03T16:53:25.796Z,6.97
2022-12-03T16:55:55.931Z,7.70
2022-12-03T16:58:26.331Z,10.43
2022-12-03T17:00:56.550Z,7.30
2022-12-03T17:03:32.024Z,10.43
2022-12-03T17:06:03.229Z,9.50
2022-12-03T17:08:34.236Z,10.67
2022-12-03T17:11:04.846Z,8.37
2022-12-03T17:13:34.935Z,10.13
2022-12-03T17:16:04.896Z,12.33
2022-12-03T17:18:35.000Z,14.67
2022-12-03T17:21:04.633Z,16.87
2022-12-03T17:23:35.057Z,14.30
2022-12-03T17:26:04.613Z,16.10
2022-12-03T17:28:34.585Z,17.83
2022-12-03T17:31:04.456Z,19.30
2022-12-03T17:33:34.141Z,17.63
2022-12-03T17:36:03.747Z,17.70
2022-12-03T17:38:38.881Z,13.17
2022-12-03T17:41:12.034Z,12.80
2022-12-03T17:43:41.678Z,9.77
2022-12-03T17:46:11.262Z,16.67
2022-12-03T17:48:43.146Z,16.47
2022-12-03T17:51:12.837Z,15.70
2022-12-03T17:53:43.322Z,17.37
2022-12-03T17:56:13.487Z,14.90
2022-12-03T17:58:43.126Z,25.37
2022-12-03T18:01:12.624Z,20.70
2022-12-03T18:03:42.279Z,25.67
2022-12-03T18:06:11.887Z,27.90
2022-12-03T18:08:41.451Z,27.80
2022-12-03T18:11:11.405Z,26.60
2022-12-03T18:13:40.932Z,20.73
2022-12-03T18:16:11.031Z,26.90
2022-12-03T18:18:41.126Z,20.70
2022-12-03T18:21:11.153Z,21.60
2022-12-03T18:23:40.912Z,20.20
2022-12-03T18:26:10.939Z,28.50
2022-12-03T18:28:41.138Z,22.73
2022-12-03T18:31:21.339Z,19.77
2022-12-03T18:33:51.576Z,13.00
2022-12-03T18:36:21.172Z,11.67
2022-12-03T18:38:52.566Z,17.70
2022-12-03T18:41:23.495Z,18.77
2022-12-03T18:43:54.032Z,18.13
2022-12-03T18:46:52.517Z,13.33
2022-12-03T18:49:14.344Z,20.97
2022-12-03T18:51:44.623Z,16.53
2022-12-03T18:54:14.840Z,20.90
2022-12-03T18:56:45.204Z,18.50
2022-12-03T18:59:14.807Z,20.23
2022-12-03T19:01:45.372Z,15.73
2022-12-03T19:04:15.177Z,18.33
2022-12-03T19:06:45.310Z,13.83
2022-12-03T19:09:15.443Z,18.90
2022-12-03T19:11:45.585Z,20.57
2022-12-03T19:14:15.663Z,10.80
2022-12-03T19:16:45.921Z,18.63
2022-12-03T19:19:16.135Z,16.80
2022-12-03T19:21:46.144Z,19.47
2022-12-03T19:24:24.449Z,22.97
2022-12-03T19:26:56.124Z,22.47
2022-12-03T19:29:26.550Z,20.13
2022-12-03T19:31:56.987Z,20.10
2022-12-03T19:34:27.560Z,23.13
2022-12-03T19:36:57.675Z,18.07
2022-12-03T19:39:27.840Z,13.00
2022-12-03T19:41:58.752Z,14.43
2022-12-03T19:44:28.713Z,14.43
2022-12-03T19:46:58.341Z,10.87
2022-12-03T19:49:28.412Z,15.87
2022-12-03T19:51:58.072Z,11.90
2022-12-03T19:54:28.106Z,17.83
2022-12-03T19:56:57.691Z,13.13
2022-12-03T19:59:27.294Z,19.80
2022-12-03T20:01:56.972Z,22.70
2022-12-03T20:04:26.996Z,15.80
2022-12-03T20:06:56.609Z,13.90
2022-12-03T20:09:26.976Z,9.47
2022-12-03T20:11:57.233Z,8.23
2022-12-03T20:14:27.470Z,8.07
2022-12-03T20:16:57.567Z,6.87
2022-12-03T20:19:27.186Z,10.33
2022-12-03T20:22:02.310Z,6.20
2022-12-03T20:24:33.839Z,5.73
2022-12-03T20:27:03.549Z,9.07
2022-12-03T20:29:33.589Z,5.80
2022-12-03T20:32:05.154Z,8.77
2022-12-03T20:34:36.709Z,8.57
2022-12-03T20:37:07.540Z,6.13
2022-12-03T20:39:37.676Z,14.17
2022-12-03T20:42:07.361Z,10.37
2022-12-03T20:44:39.102Z,7.83
2022-12-03T20:47:09.502Z,6.93
2022-12-03T20:49:40.956Z,12.33
2022-12-03T20:52:11.432Z,11.77
2022-12-03T20:54:41.529Z,13.13
2022-12-03T20:57:11.680Z,10.30
2022-12-03T20:59:41.848Z,13.13
2022-12-03T21:02:12.014Z,11.87
2022-12-03T21:04:41.883Z,8.77
2022-12-03T21:07:11.571Z,11.80
2022-12-03T21:09:41.528Z,7.30
2022-12-03T21:12:11.254Z,7.87
2022-12-03T21:14:41.224Z,7.90
2022-12-03T21:17:11.009Z,8.13
2022-12-03T21:19:40.588Z,8.10
2022-12-03T21:22:11.024Z,10.20
2022-12-03T21:24:43.988Z,7.43
2022-12-03T21:27:17.102Z,7.20
2022-12-03T21:29:51.565Z,8.33
2022-12-03T21:32:21.853Z,6.70
2022-12-03T21:34:51.439Z,11.77
2022-12-03T21:37:21.400Z,7.83
2022-12-03T21:39:51.695Z,11.83
2022-12-03T21:42:34.800Z,7.20
2022-12-03T21:45:06.952Z,10.25
2022-12-03T21:47:37.775Z,8.73
2022-12-03T21:50:08.625Z,6.00
2022-12-03T21:52:39.413Z,11.03
2022-12-03T21:55:09.931Z,7.70
2022-12-03T21:57:39.558Z,12.37
2022-12-03T22:00:10.171Z,8.80
2022-12-03T22:02:42.813Z,7.93
2022-12-03T22:05:13.529Z,6.30
2022-12-03T22:07:43.193Z,10.17
2022-12-03T22:10:13.162Z,9.00
2022-12-03T22:12:43.644Z,11.10
2022-12-03T22:15:18.454Z,9.90
2022-12-03T22:20:18.499Z,6.90
2022-12-03T22:22:49.282Z,9.70
2022-12-03T22:25:18.983Z,10.80
2022-12-03T22:27:48.467Z,8.80
2022-12-03T22:30:17.959Z,10.67
2022-12-03T22:32:47.439Z,8.63
2022-12-03T22:35:16.996Z,9.80
2022-12-03T22:37:46.545Z,8.87
2022-12-03T22:40:16.273Z,10.73
2022-12-03T22:42:50.755Z,10.47
2022-12-03T22:45:21.444Z,9.63
2022-12-03T22:47:51.477Z,12.40
2022-12-03T22:50:21.075Z,13.17
2022-12-03T22:52:50.996Z,3.03
2022-12-03T22:55:21.202Z,13.30
2022-12-03T22:57:51.132Z,9.13
2022-12-03T23:00:36.703Z,6.37
2022-12-03T23:03:06.745Z,9.33
2022-12-03T23:05:37.679Z,7.70
2022-12-03T23:08:11.311Z,10.93
2022-12-03T23:10:41.642Z,7.63
2022-12-03T23:13:11.190Z,10.13
2022-12-03T23:15:45.454Z,6.00
2022-12-03T23:18:15.534Z,5.00
2022-12-03T23:20:45.839Z,3.47
2022-12-03T23:23:16.020Z,7.20
2022-12-03T23:25:46.113Z,4.67
2022-12-03T23:28:16.160Z,3.10
2022-12-03T23:30:46.344Z,5.83
2022-12-03T23:33:16.508Z,3.77
2022-12-03T23:35:46.463Z,4.13
2022-12-03T23:38:16.670Z,5.43
2022-12-03T23:40:48.269Z,6.13
2022-12-03T23:43:19.506Z,4.37
2022-12-03T23:45:49.160Z,3.73
2022-12-03T23:48:19.452Z,5.00
2022-12-03T23:50:49.887Z,5.17
2022-12-03T23:53:19.466Z,5.50
2022-12-03T23:55:49.417Z,8.00
2022-12-03T23:58:19.008Z,6.63
